Time;durP1;ratioP1;P1;durP2;ratioP2;P2;SDS_P1;SDS_P2;PMS_P1;PMS_P2;Temp;Humidity;BMP_temperature;BMP_pressure;BME280_temperature;BME280_humidity;BME280_pressure;Samples;Min_cycle;Max_cycle;Signal;HPM_P1;HPM_P2
2021/03/23 00:00:39;;;;;;;;;;;;;;;6.07;100.00;99722.41;5092670;28;19970;-76
2021/03/23 00:03:12;;;;;;;;;;;;;;;6.06;100.00;99725.56;5093157;28;20434;-76
2021/03/23 00:05:39;;;;;;;;;;;;;;;6.21;100.00;99727.34;5093612;28;20027;-76
2021/03/23 00:08:06;;;;;;;;;;;;;;;6.19;100.00;99724.13;5093300;28;19924;-76
2021/03/23 00:10:33;;;;;;;;;;;;;;;6.24;100.00;99726.59;5092233;28;20073;-76
2021/03/23 00:12:59;;;;;;;;;;;;;;;5.94;100.00;99717.50;5092065;28;19924;-76
2021/03/23 00:15:26;;;;;;;;;;;;;;;5.88;100.00;99721.78;5093444;28;19928;-76
2021/03/23 00:17:52;;;;;;;;;;;;;;;5.84;100.00;99726.47;5092901;28;19973;-76
2021/03/23 00:20:22;;;;;;;;;;;;;;;5.80;100.00;99731.13;5093563;28;19961;-76
2021/03/23 00:22:48;;;;;;;;;;;;;;;5.79;100.00;99729.53;5079887;28;19932;-76
2021/03/23 00:25:15;;;;;;;;;;;;;;;5.70;100.00;99721.50;5108466;28;19924;-76
2021/03/23 00:27:42;;;;;;;;;;;;;;;5.59;100.00;99728.84;5093342;28;19928;-76
2021/03/23 00:30:10;;;;;;;;;;;;;;;5.66;100.00;99728.97;5092882;28;19928;-76
2021/03/23 00:32:37;;;;;;;;;;;;;;;5.89;100.00;99726.13;5093385;28;19924;-76
2021/03/23 00:35:05;;;;;;;;;;;;;;;5.98;100.00;99727.47;5074021;28;20359;-76
2021/03/23 00:37:32;;;;;;;;;;;;;;;5.96;100.00;99726.22;5092786;28;19932;-76
2021/03/23 00:40:01;;;;;;;;;;;;;;;6.06;100.00;99725.56;5093300;28;20361;-76
2021/03/23 00:42:27;;;;;;;;;;;;;;;6.22;100.00;99734.47;5091804;28;20062;-76
2021/03/23 00:44:54;;;;;;;;;;;;;;;6.30;100.00;99730.63;5092872;28;19924;-76
2021/03/23 00:47:20;;;;;;;;;;;;;;;6.31;100.00;99738.56;5092951;28;19935;-76
2021/03/23 00:49:47;;;;;;;;;;;;;;;6.39;100.00;99736.66;5093131;28;19924;-76
2021/03/23 00:52:14;;;;;;;;;;;;;;;6.47;100.00;99730.81;5088840;28;19932;-76
2021/03/23 00:54:41;;;;;;;;;;;;;;;6.49;100.00;99763.75;5091550;28;20294;-76
2021/03/23 00:57:08;;;;;;;;;;;;;;;6.52;100.00;99755.47;5090421;28;19985;-76
2021/03/23 00:59:34;;;;;;;;;;;;;;;6.56;100.00;99764.63;5092213;28;19924;-76
2021/03/23 01:02:01;;;;;;;;;;;;;;;6.52;100.00;99760.19;5093033;28;20302;-76
2021/03/23 01:04:29;;;;;;;;;;;;;;;6.52;100.00;99743.53;5092829;28;19924;-76
2021/03/23 01:07:16;;;;;;;;;;;;;;;6.49;100.00;99744.31;5093190;28;19931;-76
2021/03/23 01:10:03;;;;;;;;;;;;;;;6.47;100.00;99744.69;5092329;28;19935;-76
2021/03/23 01:12:29;;;;;;;;;;;;;;;6.51;100.00;99747.50;5094631;28;19928;-76
2021/03/23 01:14:56;;;;;;;;;;;;;;;6.40;100.00;99744.63;5096247;28;19947;-76
2021/03/23 01:17:23;;;;;;;;;;;;;;;6.41;100.00;99735.09;5095174;28;20264;-76
2021/03/23 01:19:49;;;;;;;;;;;;;;;6.44;100.00;99742.66;5096417;28;20276;-76
2021/03/23 01:22:17;;;;;;;;;;;;;;;6.40;100.00;99735.47;5096513;28;20302;-76
2021/03/23 01:24:43;;;;;;;;;;;;;;;6.34;100.00;99731.44;5095084;28;19931;-76
2021/03/23 01:27:10;;;;;;;;;;;;;;;6.41;100.00;99742.63;5096182;28;19928;-76
2021/03/23 01:29:37;;;;;;;;;;;;;;;6.41;100.00;99731.50;5111835;28;20451;-76
2021/03/23 01:32:04;;;;;;;;;;;;;;;6.51;100.00;99730.84;5096171;28;19924;-76
2021/03/23 01:34:41;;;;;;;;;;;;;;;6.44;100.00;99730.75;5096268;28;19928;-76
2021/03/23 01:37:08;;;;;;;;;;;;;;;6.40;100.00;99724.38;5094474;28;19936;-76
2021/03/23 01:39:35;;;;;;;;;;;;;;;6.40;100.00;99729.94;5095110;28;19931;-76
2021/03/23 01:42:02;;;;;;;;;;;;;;;6.33;100.00;99725.09;5111668;28;19928;-76
2021/03/23 01:44:28;;;;;;;;;;;;;;;6.39;100.00;99728.34;5094464;28;20311;-75
2021/03/23 01:46:55;;;;;;;;;;;;;;;6.39;100.00;99722.78;5094869;28;19939;-76
2021/03/23 01:49:25;;;;;;;;;;;;;;;6.40;100.00;99719.63;5094585;28;20286;-76
2021/03/23 01:51:52;;;;;;;;;;;;;;;6.46;100.00;99725.63;5095812;28;19928;-76
2021/03/23 01:54:22;;;;;;;;;;;;;;;6.42;100.00;99716.47;5095299;28;19943;-76
2021/03/23 01:56:53;;;;;;;;;;;;;;;6.37;100.00;99719.59;5095108;28;20403;-76
2021/03/23 01:59:24;;;;;;;;;;;;;;;6.34;100.00;99714.78;5094935;28;20262;-76
2021/03/23 02:01:52;;;;;;;;;;;;;;;6.32;100.00;99712.41;5095243;28;20318;-76
2021/03/23 02:04:19;;;;;;;;;;;;;;;6.40;100.00;99714.06;5095192;28;19924;-76
2021/03/23 02:06:47;;;;;;;;;;;;;;;6.33;100.00;99708.44;5095236;28;20325;-76
2021/03/23 02:09:15;;;;;;;;;;;;;;;6.28;100.00;99703.25;5094410;28;19962;-76
2021/03/23 02:11:47;;;;;;;;;;;;;;;6.39;100.00;99711.69;5095119;28;19935;-76
2021/03/23 02:14:14;;;;;;;;;;;;;;;6.39;100.00;99700.59;5095505;28;19944;-76
2021/03/23 02:16:41;;;;;;;;;;;;;;;6.42;100.00;99702.59;5093794;28;20416;-76
2021/03/23 02:19:09;;;;;;;;;;;;;;;6.41;100.00;99703.75;5088077;28;20011;-76
2021/03/23 02:21:36;;;;;;;;;;;;;;;6.40;100.00;99699.38;5094780;28;20023;-76
2021/03/23 02:24:02;;;;;;;;;;;;;;;6.37;100.00;99697.38;5094520;28;20014;-76
2021/03/23 02:26:31;;;;;;;;;;;;;;;6.33;100.00;99691.00;5094889;28;20350;-76
2021/03/23 02:29:03;;;;;;;;;;;;;;;6.34;100.00;99700.91;5111345;28;19978;-76
2021/03/23 02:31:40;;;;;;;;;;;;;;;6.25;100.00;99679.03;5095078;28;19924;-76
2021/03/23 02:34:09;;;;;;;;;;;;;;;6.27;100.00;99681.41;5093916;28;20401;-76
2021/03/23 02:36:37;;;;;;;;;;;;;;;6.35;100.00;99670.00;5094794;28;19924;-76
2021/03/23 02:39:05;;;;;;;;;;;;;;;6.37;100.00;99680.72;5093693;28;20046;-76
2021/03/23 02:41:33;;;;;;;;;;;;;;;6.39;100.00;99667.28;5094602;28;20015;-76
2021/03/23 02:44:00;;;;;;;;;;;;;;;6.29;100.00;99667.94;5095084;28;19965;-76
2021/03/23 02:46:26;;;;;;;;;;;;;;;6.20;100.00;99664.66;5094697;28;19931;-76
2021/03/23 02:48:53;;;;;;;;;;;;;;;6.14;100.00;99677.28;5093797;28;19931;-76
2021/03/23 02:51:20;;;;;;;;;;;;;;;6.17;100.00;99676.53;5093379;28;20371;-76
2021/03/23 02:53:47;;;;;;;;;;;;;;;6.15;100.00;99663.03;5093669;28;19973;-76
2021/03/23 02:56:14;;;;;;;;;;;;;;;6.17;100.00;99660.69;5094297;28;20390;-76
2021/03/23 02:58:41;;;;;;;;;;;;;;;6.22;100.00;99663.13;5094630;28;19928;-76
2021/03/23 03:01:08;;;;;;;;;;;;;;;6.18;100.00;99658.72;5094663;28;19924;-75
2021/03/23 03:03:34;;;;;;;;;;;;;;;6.16;100.00;99652.75;5094597;28;19969;-75
2021/03/23 03:06:01;;;;;;;;;;;;;;;6.17;100.00;99648.78;5093352;28;19928;-76
2021/03/23 03:08:27;;;;;;;;;;;;;;;6.12;100.00;99646.38;5094285;28;19924;-76
2021/03/23 03:10:54;;;;;;;;;;;;;;;6.16;100.00;99650.78;5094336;28;19928;-76
2021/03/23 03:13:22;;;;;;;;;;;;;;;6.15;100.00;99645.63;5094393;28;20298;-76
2021/03/23 03:15:50;;;;;;;;;;;;;;;6.11;100.00;99640.00;5093107;28;19938;-76
2021/03/23 03:18:17;;;;;;;;;;;;;;;6.10;100.00;99635.66;5109781;28;19931;-76
2021/03/23 03:20:44;;;;;;;;;;;;;;;6.16;100.00;99633.31;5094195;28;20057;-76
2021/03/23 03:23:11;;;;;;;;;;;;;;;6.06;100.00;99634.03;5094266;28;20378;-76
2021/03/23 03:25:38;;;;;;;;;;;;;;;6.07;100.00;99630.06;5092574;28;20364;-76
2021/03/23 03:28:07;;;;;;;;;;;;;;;6.02;100.00;99631.19;5109865;28;19928;-76
2021/03/23 03:30:35;;;;;;;;;;;;;;;6.05;100.00;99637.94;5092929;28;19931;-76
2021/03/23 03:33:03;;;;;;;;;;;;;;;6.05;100.00;99635.19;5092867;28;19959;-76
2021/03/23 03:35:32;;;;;;;;;;;;;;;6.01;100.00;99631.56;5093925;28;20019;-76
2021/03/23 03:37:59;;;;;;;;;;;;;;;6.04;100.00;99628.03;5093626;28;19924;-76
2021/03/23 03:40:36;;;;;;;;;;;;;;;6.06;100.00;99634.03;5093777;28;19924;-76
2021/03/23 03:43:03;;;;;;;;;;;;;;;6.11;100.00;99639.22;5093745;28;19924;-76
2021/03/23 03:45:30;;;;;;;;;;;;;;;6.07;100.00;99617.00;5093874;28;20018;-76
2021/03/23 03:47:57;;;;;;;;;;;;;;;6.09;100.00;99613.84;5093755;28;19925;-76
2021/03/23 03:50:24;;;;;;;;;;;;;;;6.06;100.00;99614.59;5093885;28;19924;-76
2021/03/23 03:52:51;;;;;;;;;;;;;;;5.92;100.00;99617.22;5093688;28;19924;-76
2021/03/23 03:55:21;;;;;;;;;;;;;;;6.03;100.00;99616.13;5093466;28;19924;-76
2021/03/23 03:57:47;;;;;;;;;;;;;;;5.95;100.00;99617.25;5093640;28;19948;-76
2021/03/23 04:00:18;;;;;;;;;;;;;;;5.91;100.00;99619.19;5093737;28;19932;-76
2021/03/23 04:02:45;;;;;;;;;;;;;;;5.94;100.00;99617.63;5093894;28;19924;-76
2021/03/23 04:05:29;;;;;;;;;;;;;;;6.00;100.00;99616.13;5092332;28;19928;-76
2021/03/23 04:07:56;;;;;;;;;;;;;;;5.98;100.00;99607.38;5071855;28;19930;-76
2021/03/23 04:10:23;;;;;;;;;;;;;;;5.98;100.00;99615.69;5109011;28;19928;-75
2021/03/23 04:12:50;;;;;;;;;;;;;;;5.93;100.00;99610.47;5093572;28;20329;-75
2021/03/23 04:15:35;;;;;;;;;;;;;;;5.96;100.00;99606.94;5093401;28;19924;-76
2021/03/23 04:18:03;;;;;;;;;;;;;;;5.85;100.00;99598.50;5092104;28;19928;-76
2021/03/23 04:20:30;;;;;;;;;;;;;;;5.89;100.00;99604.09;5093430;28;20019;-75
2021/03/23 04:22:57;;;;;;;;;;;;;;;5.82;100.00;99590.13;5093186;28;19947;-76
2021/03/23 04:25:26;;;;;;;;;;;;;;;5.80;100.00;99586.94;5093298;28;20419;-76
2021/03/23 04:27:53;;;;;;;;;;;;;;;5.73;100.00;99587.66;5093220;28;19932;-76
2021/03/23 04:30:20;;;;;;;;;;;;;;;5.75;100.00;99590.03;5093446;28;19924;-76
2021/03/23 04:32:47;;;;;;;;;;;;;;;5.83;100.00;99583.44;5092095;28;20363;-75
2021/03/23 04:35:24;;;;;;;;;;;;;;;5.76;100.00;99588.84;5093387;28;19928;-76
2021/03/23 04:37:51;;;;;;;;;;;;;;;5.68;100.00;99587.19;5091437;28;19924;-76
2021/03/23 04:40:18;;;;;;;;;;;;;;;5.67;100.00;99585.56;5093317;28;19924;-76
2021/03/23 04:42:45;;;;;;;;;;;;;;;5.66;100.00;99579.25;5091855;28;19924;-76
2021/03/23 04:45:13;;;;;;;;;;;;;;;5.63;100.00;99580.78;5093339;28;19935;-76
2021/03/23 04:47:40;;;;;;;;;;;;;;;5.67;100.00;99582.81;5095205;28;19931;-75
2021/03/23 04:50:08;;;;;;;;;;;;;;;5.70;100.00;99574.53;5097121;28;19924;-75
2021/03/23 04:52:35;;;;;;;;;;;;;;;5.62;100.00;99572.84;5089457;28;19925;-76
2021/03/23 04:55:02;;;;;;;;;;;;;;;5.59;100.00;99568.06;5096560;28;20007;-76
2021/03/23 04:57:29;;;;;;;;;;;;;;;5.65;100.00;99576.88;5095692;28;20367;-76
2021/03/23 04:59:59;;;;;;;;;;;;;;;5.65;100.00;99565.78;5088358;28;19964;-76
2021/03/23 05:02:33;;;;;;;;;;;;;;;5.65;100.00;99568.53;5066769;28;19974;-76
2021/03/23 05:04:59;;;;;;;;;;;;;;;5.68;100.00;99567.78;5094103;28;20292;-76
2021/03/23 05:07:26;;;;;;;;;;;;;;;5.56;100.00;99568.81;5095295;28;19989;-76
2021/03/23 05:09:54;;;;;;;;;;;;;;;5.60;100.00;99559.38;5096487;28;19969;-76
2021/03/23 05:12:21;;;;;;;;;;;;;;;5.61;100.00;99562.94;5096517;28;19947;-76
2021/03/23 05:14:48;;;;;;;;;;;;;;;5.58;100.00;99561.75;5096449;28;19928;-76
2021/03/23 05:17:15;;;;;;;;;;;;;;;5.58;100.00;99555.38;5111934;28;19963;-76
2021/03/23 05:19:41;;;;;;;;;;;;;;;5.57;100.00;99556.56;5095340;28;19955;-76
2021/03/23 05:22:08;;;;;;;;;;;;;;;5.57;100.00;99560.13;5095892;28;19928;-76
2021/03/23 05:24:34;;;;;;;;;;;;;;;5.53;100.00;99559.28;5095266;28;20027;-76
2021/03/23 05:27:01;;;;;;;;;;;;;;;5.60;100.00;99556.59;5096212;28;19963;-76
2021/03/23 05:29:28;;;;;;;;;;;;;;;5.60;100.00;99558.59;5096231;28;19928;-76
2021/03/23 05:31:55;;;;;;;;;;;;;;;5.53;100.00;99553.75;5096159;28;19925;-76
2021/03/23 05:34:21;;;;;;;;;;;;;;;5.49;100.00;99563.19;5096135;28;19924;-76
2021/03/23 05:36:48;;;;;;;;;;;;;;;5.52;100.00;99557.72;5094555;28;20291;-76
2021/03/23 05:39:14;;;;;;;;;;;;;;;5.54;100.00;99554.56;5096069;28;19997;-76
2021/03/23 05:41:44;;;;;;;;;;;;;;;5.49;100.00;99557.66;5096141;28;19932;-76
2021/03/23 05:44:29;;;;;;;;;;;;;;;5.59;100.00;99556.97;5094813;28;19954;-76
2021/03/23 05:46:56;;;;;;;;;;;;;;;5.55;100.00;99551.41;5096107;28;19954;-76
2021/03/23 05:49:29;;;;;;;;;;;;;;;5.56;100.00;99557.72;5095519;28;19932;-76
2021/03/23 05:52:15;;;;;;;;;;;;;;;5.56;100.00;99558.53;5094755;28;20290;-76
2021/03/23 05:54:44;;;;;;;;;;;;;;;5.56;100.00;99541.91;5095803;28;19984;-76
2021/03/23 05:57:19;;;;;;;;;;;;;;;5.56;100.00;99547.44;5095684;28;20375;-76
2021/03/23 05:59:53;;;;;;;;;;;;;;;5.54;100.00;99549.03;5093242;28;20021;-76
2021/03/23 06:02:23;;;;;;;;;;;;;;;5.44;100.00;99544.94;5095830;28;19924;-76
2021/03/23 06:05:09;;;;;;;;;;;;;;;5.45;100.00;99548.50;5095375;28;19930;-76
2021/03/23 06:07:38;;;;;;;;;;;;;;;5.53;100.00;99556.53;5095550;28;20473;-76
2021/03/23 06:10:14;;;;;;;;;;;;;;;5.50;100.00;99557.28;5095331;28;20367;-76
2021/03/23 06:13:03;;;;;;;;;;;;;;;5.51;100.00;99547.78;5094409;28;19931;-76
2021/03/23 06:15:48;;;;;;;;;;;;;;;5.52;100.00;99545.81;5095350;28;20484;-75
2021/03/23 06:18:21;;;;;;;;;;;;;;;5.51;100.00;99547.78;5093665;28;19947;-76
2021/03/23 06:20:51;;;;;;;;;;;;;;;5.54;100.00;99549.78;5095384;28;20370;-76
2021/03/23 06:23:36;;;;;;;;;;;;;;;5.59;100.00;99549.47;5095243;28;19924;-76
2021/03/23 06:26:03;;;;;;;;;;;;;;;5.60;100.00;99547.50;5073647;28;19935;-76
2021/03/23 06:28:55;;;;;;;;;;;;;;;5.60;100.00;99539.97;5101880;28;19931;-76
2021/03/23 06:31:40;;;;;;;;;;;;;;;5.63;100.00;99539.22;5095311;28;19931;-76
2021/03/23 06:34:18;;;;;;;;;;;;;;;5.63;100.00;99550.28;5094685;28;19931;-76
2021/03/23 06:36:44;;;;;;;;;;;;;;;5.60;100.00;99545.50;5073502;28;19928;-76
2021/03/23 06:39:11;;;;;;;;;;;;;;;5.62;100.00;99555.44;5089858;28;19924;-77
2021/03/23 06:41:50;;;;;;;;;;;;;;;5.60;100.00;99548.28;5093470;28;19971;-76
2021/03/23 06:44:17;;;;;;;;;;;;;;;5.60;100.00;99537.19;5093601;28;19931;-76
2021/03/23 06:46:44;;;;;;;;;;;;;;;5.55;100.00;99534.78;5094680;28;20515;-76
2021/03/23 06:49:14;;;;;;;;;;;;;;;5.60;100.00;99536.41;5084543;28;19924;-75
2021/03/23 06:51:53;;;;;;;;;;;;;;;5.62;100.00;99527.72;5094050;28;20300;-75
2021/03/23 06:54:24;;;;;;;;;;;;;;;5.69;100.00;99533.31;5093010;28;19931;-76
2021/03/23 06:57:02;;;;;;;;;;;;;;;5.68;100.00;99534.50;5093684;28;20386;-75
2021/03/23 06:59:30;;;;;;;;;;;;;;;5.74;100.00;99536.53;5093807;28;19930;-75
2021/03/23 07:02:01;;;;;;;;;;;;;;;5.72;100.00;99530.59;5093702;28;19924;-75
2021/03/23 07:04:36;;;;;;;;;;;;;;;5.69;100.00;99533.31;5093829;28;19985;-75
2021/03/23 07:07:18;;;;;;;;;;;;;;;5.74;100.00;99538.53;5094334;28;19924;-75
2021/03/23 07:09:46;;;;;;;;;;;;;;;5.77;100.00;99526.69;5096715;28;19924;-75
2021/03/23 07:12:13;;;;;;;;;;;;;;;5.74;100.00;99531.00;5093425;28;19935;-75
2021/03/23 07:14:41;;;;;;;;;;;;;;;5.78;100.00;99533.81;5093457;28;20018;-75
2021/03/23 07:17:13;;;;;;;;;;;;;;;5.80;100.00;99534.25;5092690;28;19924;-75
2021/03/23 07:19:51;;;;;;;;;;;;;;;5.77;100.00;99535.00;5092359;28;19934;-75
2021/03/23 07:22:25;;;;;;;;;;;;;;;5.76;100.00;99528.66;5091782;28;19963;-76
2021/03/23 07:24:57;;;;;;;;;;;;;;;5.80;100.00;99531.47;5092433;28;19928;-76
2021/03/23 07:27:26;;;;;;;;;;;;;;;5.84;100.00;99529.56;5093865;28;19924;-76
2021/03/23 07:30:11;;;;;;;;;;;;;;;5.92;100.00;99525.69;5092812;28;19928;-76
2021/03/23 07:32:41;;;;;;;;;;;;;;;5.82;100.00;99527.16;5093390;28;20026;-76
2021/03/23 07:35:34;;;;;;;;;;;;;;;5.91;100.00;99530.41;5085352;28;20291;-76
2021/03/23 07:38:20;;;;;;;;;;;;;;;5.95;100.00;99525.72;5077342;28;19931;-77
2021/03/23 07:40:49;;;;;;;;;;;;;;;5.89;100.00;99527.25;5092501;28;19924;-76
2021/03/23 07:43:34;;;;;;;;;;;;;;;6.01;100.00;99529.75;5093720;28;20029;-77
2021/03/23 07:46:18;;;;;;;;;;;;;;;5.97;100.00;99522.56;5091238;28;20398;-76
2021/03/23 07:48:48;;;;;;;;;;;;;;;5.96;100.00;99532.06;5078094;28;19931;-76
2021/03/23 07:51:20;;;;;;;;;;;;;;;6.06;100.00;99531.38;5092187;28;20003;-76
2021/03/23 07:53:46;;;;;;;;;;;;;;;6.06;100.00;99531.38;5088567;28;19924;-76
2021/03/23 07:56:33;;;;;;;;;;;;;;;6.12;100.00;99521.53;5073231;28;19952;-76
2021/03/23 07:59:19;;;;;;;;;;;;;;;6.16;100.00;99517.59;5074073;28;19931;-76
2021/03/23 08:01:56;;;;;;;;;;;;;;;6.24;100.00;99518.44;5089914;28;19925;-85
2021/03/23 08:04:42;;;;;;;;;;;;;;;6.28;100.00;99513.72;5090236;28;20012;-84
2021/03/23 08:07:08;;;;;;;;;;;;;;;6.33;100.00;99513.38;5084996;28;19924;-78
2021/03/23 08:09:48;;;;;;;;;;;;;;;6.46;100.00;99514.66;5088605;28;19924;-79
2021/03/23 08:12:54;;;;;;;;;;;;;;;6.55;100.00;99509.56;5089620;28;19993;-78
2021/03/23 08:15:23;;;;;;;;;;;;;;;6.55;100.00;99504.00;5066521;28;19925;-79
2021/03/23 08:18:25;;;;;;;;;;;;;;;6.59;100.00;99493.72;5066163;28;20019;-79
2021/03/23 08:21:00;;;;;;;;;;;;;;;6.61;100.00;99500.50;5038148;28;19932;-85
2021/03/23 08:23:45;;;;;;;;;;;;;;;6.62;100.00;99507.63;5033432;28;19925;-90
2021/03/23 08:26:31;;;;;;;;;;;;;;;6.56;100.00;99511.16;5033345;28;20450;-82
2021/03/23 08:29:11;;;;;;;;;;;;;;;6.62;100.00;99513.19;5032721;28;19925;-84
2021/03/23 08:32:01;;;;;;;;;;;;;;;6.62;100.00;99513.19;5024262;28;20015;-82
2021/03/23 08:34:39;;;;;;;;;;;;;;;6.74;100.00;99523.19;4980650;28;20285;-82
2021/03/23 08:37:06;;;;;;;;;;;;;;;6.77;100.00;99514.09;5020347;28;19925;-81
2021/03/23 08:39:48;;;;;;;;;;;;;;;6.83;100.00;99512.53;5012775;28;19925;-79
2021/03/23 08:42:14;;;;;;;;;;;;;;;6.77;100.00;99505.75;4995676;28;20361;-82
2021/03/23 08:44:44;;;;;;;;;;;;;;;6.82;100.00;99508.16;5011661;28;19929;-83
2021/03/23 08:47:20;;;;;;;;;;;;;;;6.90;100.00;99509.78;4969371;28;19952;-83
2021/03/23 08:49:47;;;;;;;;;;;;;;;6.96;100.00;99499.91;4991851;28;19926;-84
2021/03/23 08:52:18;;;;;;;;;;;;;;;7.00;100.00;99493.19;4992703;28;20115;-83
2021/03/23 08:54:50;;;;;;;;;;;;;;;7.07;100.00;99504.31;4993689;28;19932;-82
2021/03/23 08:57:18;;;;;;;;;;;;;;;7.03;100.00;99500.72;5003278;28;19933;-82
2021/03/23 08:59:47;;;;;;;;;;;;;;;6.99;100.00;99499.13;5030215;28;19925;-83
2021/03/23 09:02:13;;;;;;;;;;;;;;;7.09;100.00;99501.16;5017631;28;20023;-93
2021/03/23 09:04:53;;;;;;;;;;;;;;;7.15;100.00;99488.47;5014241;28;19927;-93
2021/03/23 09:07:21;;;;;;;;;;;;;;;7.27;100.00;99483.38;4998750;28;20007;-93
2021/03/23 09:09:50;;;;;;;;;;;;;;;7.42;100.00;99489.78;5002163;28;20470;-92
2021/03/23 09:12:35;;;;;;;;;;;;;;;7.43;100.00;99498.91;5062317;28;20329;-79
2021/03/23 09:15:08;;;;;;;;;;;;;;;7.52;100.00;99491.78;5091098;28;19932;-89
2021/03/23 09:17:37;;;;;;;;;;;;;;;7.55;100.00;99490.19;5100612;28;19966;-94
2021/03/23 09:20:23;;;;;;;;;;;;;;;7.55;100.00;99491.00;5060586;28;19928;-92
2021/03/23 09:22:50;;;;;;;;;;;;;;;7.59;100.00;99491.81;5095553;28;20298;-94
2021/03/23 09:25:23;;;;;;;;;;;;;;;7.65;100.00;99484.66;5078858;28;19924;-91
2021/03/23 09:27:51;;;;;;;;;;;;;;;7.57;100.00;99483.06;5083272;28;20286;-95
2021/03/23 09:30:44;;;;;;;;;;;;;;;7.46;100.00;99485.03;5048067;28;19924;-94
2021/03/23 09:33:14;;;;;;;;;;;;;;;7.55;100.00;99484.63;5061425;28;19924;-89
2021/03/23 09:35:59;;;;;;;;;;;;;;;7.58;100.00;99483.84;5079646;28;20372;-94
2021/03/23 09:38:29;;;;;;;;;;;;;;;7.69;100.00;99491.06;5045846;28;20306;-90
2021/03/23 09:41:04;;;;;;;;;;;;;;;7.74;100.00;99487.84;5078003;28;19924;-89
2021/03/23 09:43:38;;;;;;;;;;;;;;;7.79;100.00;99489.47;5045552;28;20343;-94
2021/03/23 09:46:08;;;;;;;;;;;;;;;7.73;100.00;99480.72;5063109;28;19924;-93
2021/03/23 09:48:54;;;;;;;;;;;;;;;7.73;100.00;99472.38;5062060;28;19924;-91
2021/03/23 09:51:24;;;;;;;;;;;;;;;7.76;100.00;99470.78;5063823;28;19925;-93
2021/03/23 09:53:56;;;;;;;;;;;;;;;7.91;100.00;99469.59;5063450;28;20371;-91
2021/03/23 09:56:27;;;;;;;;;;;;;;;7.98;100.00;99473.19;5061674;28;19927;-92
2021/03/23 09:58:59;;;;;;;;;;;;;;;8.09;100.00;99470.44;5062280;28;20295;-92
2021/03/23 10:01:26;;;;;;;;;;;;;;;8.09;100.00;99459.31;5041923;28;19924;-81
2021/03/23 10:03:53;;;;;;;;;;;;;;;8.13;100.00;99457.31;5093072;28;19924;-82
2021/03/23 10:06:22;;;;;;;;;;;;;;;8.28;100.00;99462.50;5092457;28;19931;-81
2021/03/23 10:09:00;;;;;;;;;;;;;;;8.44;100.00;99448.97;5091390;28;19931;-80
2021/03/23 10:11:28;;;;;;;;;;;;;;;8.58;100.00;99443.38;5088697;28;19924;-81
2021/03/23 10:13:58;;;;;;;;;;;;;;;8.61;100.00;99450.13;5092513;28;19947;-85
2021/03/23 10:16:27;;;;;;;;;;;;;;;8.48;100.00;99444.16;5087593;28;20065;-79
2021/03/23 10:18:57;;;;;;;;;;;;;;;8.41;100.00;99438.63;5091735;28;19928;-79
2021/03/23 10:21:25;;;;;;;;;;;;;;;8.22;100.00;99447.41;5093266;28;20391;-79
2021/03/23 10:23:56;;;;;;;;;;;;;;;8.29;100.00;99441.00;5095051;28;20248;-79
2021/03/23 10:26:51;;;;;;;;;;;;;;;8.36;100.00;99452.94;5093585;28;20362;-79
2021/03/23 10:29:29;;;;;;;;;;;;;;;8.32;100.00;99446.59;5093104;28;19977;-80
2021/03/23 10:31:57;;;;;;;;;;;;;;;8.31;100.00;99452.56;5095289;28;20054;-79
2021/03/23 10:34:28;;;;;;;;;;;;;;;8.36;100.00;99435.47;5093583;28;19939;-80
2021/03/23 10:36:56;;;;;;;;;;;;;;;8.34;100.00;99455.34;5095040;28;19924;-80
2021/03/23 10:39:26;;;;;;;;;;;;;;;8.45;100.00;99449.75;5094617;28;20413;-79
2021/03/23 10:41:52;;;;;;;;;;;;;;;8.44;100.00;99454.53;5093709;28;20408;-79
2021/03/23 10:44:21;;;;;;;;;;;;;;;8.42;100.00;99448.56;5094148;28;19932;-79
2021/03/23 10:46:48;;;;;;;;;;;;;;;8.44;100.00;99457.31;5094976;28;20064;-80
2021/03/23 10:51:49;;;;;;;;;;;;;;;8.54;100.00;99459.28;5094947;28;19930;-79
2021/03/23 10:54:28;;;;;;;;;;;;;;;8.55;100.00;99460.88;5091618;28;19924;-79
2021/03/23 10:56:56;;;;;;;;;;;;;;;8.56;100.00;99448.53;5094173;28;20359;-80
2021/03/23 10:59:27;;;;;;;;;;;;;;;8.60;100.00;99452.09;5092095;28;20019;-79
2021/03/23 11:01:57;;;;;;;;;;;;;;;8.61;100.00;99442.56;5087570;28;19970;-80
2021/03/23 11:04:24;;;;;;;;;;;;;;;8.68;100.00;99447.31;5093372;28;19948;-79
2021/03/23 11:06:51;;;;;;;;;;;;;;;8.62;100.00;99430.22;5093058;28;19928;-79
2021/03/23 11:09:18;;;;;;;;;;;;;;;8.60;100.00;99434.63;5091760;28;19928;-79
2021/03/23 11:11:53;;;;;;;;;;;;;;;8.73;100.00;99435.75;5093105;28;19924;-80
2021/03/23 11:14:19;;;;;;;;;;;;;;;8.76;100.00;99432.97;5093422;28;20170;-79
2021/03/23 11:16:46;;;;;;;;;;;;;;;8.87;100.00;99428.16;5093135;28;19938;-80
2021/03/23 11:19:26;;;;;;;;;;;;;;;8.87;100.00;99417.03;5093014;28;19939;-80
2021/03/23 11:21:58;;;;;;;;;;;;;;;8.86;100.00;99425.78;5092951;28;20596;-80
2021/03/23 11:24:25;;;;;;;;;;;;;;;8.81;100.00;99435.34;5096436;28;19924;-80
2021/03/23 11:26:52;;;;;;;;;;;;;;;8.73;100.00;99428.22;5087394;28;19977;-79
2021/03/23 11:29:19;;;;;;;;;;;;;;;8.77;100.00;99417.84;5108911;28;19924;-79
2021/03/23 11:31:46;;;;;;;;;;;;;;;8.74;100.00;99427.00;5108762;28;20015;-79
2021/03/23 11:34:13;;;;;;;;;;;;;;;8.76;100.00;99421.81;5108579;28;20031;-79
2021/03/23 11:36:41;;;;;;;;;;;;;;;8.77;100.00;99417.03;5093386;28;20536;-79
2021/03/23 11:39:13;;;;;;;;;;;;;;;8.62;100.00;99423.84;5092540;28;19928;-80
2021/03/23 11:41:42;;;;;;;;;;;;;;;8.61;100.00;99420.28;5091860;28;20367;-79
2021/03/23 11:44:11;;;;;;;;;;;;;;;8.64;100.00;99408.34;5092886;28;19924;-79
2021/03/23 11:46:39;;;;;;;;;;;;;;;8.82;100.00;99411.06;5079286;28;19924;-79
2021/03/23 11:49:09;;;;;;;;;;;;;;;8.89;100.00;99400.69;5091624;28;20406;-79
2021/03/23 11:51:39;;;;;;;;;;;;;;;9.01;100.00;99416.94;5092375;28;20011;-79
2021/03/23 11:54:06;;;;;;;;;;;;;;;9.15;100.00;99402.16;5092626;28;20375;-79
2021/03/23 11:56:33;;;;;;;;;;;;;;;9.18;100.00;99403.34;5092492;28;19988;-79
2021/03/23 11:59:00;;;;;;;;;;;;;;;9.27;100.00;99404.47;5092596;28;19977;-79
2021/03/23 12:01:27;;;;;;;;;;;;;;;9.42;100.00;99405.19;5092370;28;20015;-78
2021/03/23 12:03:54;;;;;;;;;;;;;;;9.52;100.00;99413.50;5092625;28;19970;-78
2021/03/23 12:06:28;;;;;;;;;;;;;;;9.50;100.00;99401.16;5092062;28;19956;-78
2021/03/23 12:09:04;;;;;;;;;;;;;;;9.46;100.00;99406.78;5092598;28;19930;-78
2021/03/23 12:11:40;;;;;;;;;;;;;;;9.39;100.00;99404.00;5078882;28;19925;-79
2021/03/23 12:14:12;;;;;;;;;;;;;;;9.37;100.00;99392.47;5092535;28;19974;-79
2021/03/23 12:16:49;;;;;;;;;;;;;;;9.42;100.00;99391.25;5092410;28;19924;-79
2021/03/23 12:19:21;;;;;;;;;;;;;;;9.50;100.00;99388.00;5091401;28;20342;-79
2021/03/23 12:21:49;;;;;;;;;;;;;;;9.51;100.00;99395.16;5092107;28;19935;-79
2021/03/23 12:24:17;;;;;;;;;;;;;;;9.53;100.00;99387.19;5092468;28;19924;-79
2021/03/23 12:26:43;;;;;;;;;;;;;;;9.71;100.00;99385.06;5092345;28;19928;-79
2021/03/23 12:29:10;;;;;;;;;;;;;;;9.91;100.00;99379.72;5074170;28;20019;-79
2021/03/23 12:31:37;;;;;;;;;;;;;;;10.00;100.00;99378.06;5092398;28;19924;-79
2021/03/23 12:34:03;;;;;;;;;;;;;;;10.30;100.00;99364.22;5091319;28;19932;-79
2021/03/23 12:36:30;;;;;;;;;;;;;;;10.51;100.00;99368.81;5092205;28;19966;-79
2021/03/23 12:38:57;;;;;;;;;;;;;;;10.66;100.00;99359.06;5092435;28;19928;-79
2021/03/23 12:41:29;;;;;;;;;;;;;;;10.69;100.00;99347.06;5091382;28;20005;-79
2021/03/23 12:43:56;;;;;;;;;;;;;;;10.68;100.00;99345.44;5092651;28;19947;-79
2021/03/23 12:46:24;;;;;;;;;;;;;;;10.65;100.00;99340.69;5090859;28;19931;-79
2021/03/23 12:48:51;;;;;;;;;;;;;;;10.59;100.00;99342.38;5107869;28;19924;-80
2021/03/23 12:51:20;;;;;;;;;;;;;;;10.63;100.00;99329.16;5090668;28;19959;-79
2021/03/23 12:53:47;;;;;;;;;;;;;;;10.60;100.00;99339.16;5091053;28;20383;-79
2021/03/23 12:56:13;;;;;;;;;;;;;;;10.56;100.00;99327.22;5092010;28;19934;-79
2021/03/23 12:58:43;;;;;;;;;;;;;;;10.68;100.00;99323.09;5070760;28;20385;-80
2021/03/23 13:01:09;;;;;;;;;;;;;;;10.85;100.00;99324.88;5101956;28;19947;-79
2021/03/23 13:03:54;;;;;;;;;;;;;;;10.69;100.00;99321.91;5080537;28;20318;-79
2021/03/23 13:06:23;;;;;;;;;;;;;;;10.67;100.00;99310.34;5090468;28;19931;-79